地図

経路データ

SID SEASON NUMBER BASIN SUBBASIN NAME ISO_TIME NATURE LAT LON WMO_WIND WMO_PRES WMO_AGENCY TRACK_TYPE DIST2LAND LANDFALL IFLAG USA_AGENCY USA_ATCF_ID USA_LAT USA_LON USA_RECORD USA_STATUS USA_WIND USA_PRES USA_SSHS USA_R34_NE USA_R34_SE USA_R34_SW USA_R34_NW USA_R50_NE USA_R50_SE USA_R50_SW USA_R50_NW USA_R64_NE USA_R64_SE USA_R64_SW USA_R64_NW USA_POCI USA_ROCI USA_RMW USA_EYE TOKYO_LAT TOKYO_LON TOKYO_GRADE TOKYO_WIND TOKYO_PRES TOKYO_R50_DIR TOKYO_R50_LONG TOKYO_R50_SHORT TOKYO_R30_DIR TOKYO_R30_LONG TOKYO_R30_SHORT TOKYO_LAND CMA_LAT CMA_LON CMA_CAT CMA_WIND CMA_PRES HKO_LAT HKO_LON HKO_CAT HKO_WIND HKO_PRES NEWDELHI_LAT NEWDELHI_LON NEWDELHI_GRADE NEWDELHI_WIND NEWDELHI_PRES NEWDELHI_CI NEWDELHI_DP NEWDELHI_POCI REUNION_LAT REUNION_LON REUNION_TYPE REUNION_WIND REUNION_PRES REUNION_TNUM REUNION_CI REUNION_RMW REUNION_R34_NE REUNION_R34_SE REUNION_R34_SW REUNION_R34_NW REUNION_R50_NE REUNION_R50_SE REUNION_R50_SW REUNION_R50_NW REUNION_R64_NE REUNION_R64_SE REUNION_R64_SW REUNION_R64_NW BOM_LAT BOM_LON BOM_TYPE BOM_WIND BOM_PRES BOM_TNUM BOM_CI BOM_RMW BOM_R34_NE BOM_R34_SE BOM_R34_SW BOM_R34_NW BOM_R50_NE BOM_R50_SE BOM_R50_SW BOM_R50_NW BOM_R64_NE BOM_R64_SE BOM_R64_SW BOM_R64_NW BOM_ROCI BOM_POCI BOM_EYE BOM_POS_METHOD BOM_PRES_METHOD NADI_LAT NADI_LON NADI_CAT NADI_WIND NADI_PRES WELLINGTON_LAT WELLINGTON_LON WELLINGTON_WIND WELLINGTON_PRES DS824_LAT DS824_LON DS824_STAGE DS824_WIND DS824_PRES TD9636_LAT TD9636_LON TD9636_STAGE TD9636_WIND TD9636_PRES TD9635_LAT TD9635_LON TD9635_WIND TD9635_PRES TD9635_ROCI NEUMANN_LAT NEUMANN_LON NEUMANN_CLASS NEUMANN_WIND NEUMANN_PRES MLC_LAT MLC_LON MLC_CLASS MLC_WIND MLC_PRES USA_GUST BOM_GUST BOM_GUST_PER REUNION_GUST REUNION_GUST_PER USA_SEAHGT USA_SEARAD_NE USA_SEARAD_SE USA_SEARAD_SW USA_SEARAD_NW STORM_SPEED STORM_DIR
1911162N15147 1911 38 WP MM NOT_NAMED 1911-06-11 09:00:00 NR 14.7000 147.200 main 1882 1882 __________O___ -1 14.7000 147.200 7 15 273
1911162N15147 1911 38 WP MM NOT_NAMED 1911-06-11 12:00:00 NR 14.7353 146.452 main 1882 1882 __________P___ -1 14.7353 146.452 7 14 273
1911162N15147 1911 38 WP MM NOT_NAMED 1911-06-11 15:00:00 NR 14.7653 145.733 main 1895 1895 __________P___ -1 14.7653 145.733 7 13 272
1911162N15147 1911 38 WP MM NOT_NAMED 1911-06-11 18:00:00 NR 14.7876 145.072 main 1900 1900 __________P___ -1 14.7876 145.072 7 12 272
1911162N15147 1911 38 WP MM NOT_NAMED 1911-06-11 21:00:00 NR 14.8000 144.500 main 1907 1907 __________O___ -1 14.8000 144.500 7 10 271
1911162N15147 1911 38 WP MM NOT_NAMED 1911-06-12 00:00:00 NR 14.8019 144.033 main 1914 1914 __________P___ -1 14.8019 144.033 7 8 270
1911162N15147 1911 38 WP MM NOT_NAMED 1911-06-12 03:00:00 NR 14.7984 143.640 main 1921 1921 __________P___ -1 14.7984 143.640 7 7 270
1911162N15147 1911 38 WP MM NOT_NAMED 1911-06-12 06:00:00 NR 14.7958 143.277 main 1921 1902 __________P___ -1 14.7958 143.277 7 7 270
1911162N15147 1911 38 WP MM NOT_NAMED 1911-06-12 09:00:00 NR 14.8000 142.900 main 1902 1859 __________O___ -1 14.8000 142.900 7 8 272
1911162N15147 1911 38 WP MM NOT_NAMED 1911-06-12 12:00:00 NR 14.8177 142.447 main 1849 1807 __________P___ -1 14.8177 142.447 7 9 273
1911162N15147 1911 38 WP MM NOT_NAMED 1911-06-12 15:00:00 NR 14.8424 141.973 main 1807 1756 __________P___ -1 14.8424 141.973 7 9 273
1911162N15147 1911 38 WP MM NOT_NAMED 1911-06-12 18:00:00 NR 14.8708 141.487 main 1756 1703 __________P___ -1 14.8708 141.487 7 9 274
1911162N15147 1911 38 WP MM NOT_NAMED 1911-06-12 21:00:00 NR 14.9000 141.000 main 1703 1649 __________O___ -1 14.9000 141.000 7 9 273
1911162N15147 1911 38 WP MM NOT_NAMED 1911-06-13 00:00:00 NR 14.9248 140.521 main 1649 1607 __________P___ -1 14.9248 140.521 7 9 273
1911162N15147 1911 38 WP MM NOT_NAMED 1911-06-13 03:00:00 NR 14.9497 140.042 main 1596 1556 __________P___ -1 14.9497 140.042 7 9 273
1911162N15147 1911 38 WP MM NOT_NAMED 1911-06-13 06:00:00 NR 14.9748 139.568 main 1556 1503 __________P___ -1 14.9748 139.568 7 9 273
1911162N15147 1911 38 WP MM NOT_NAMED 1911-06-13 09:00:00 NR 15.0000 139.100 main 1503 1461 __________O___ -1 15.0000 139.100 7 9 272
1911162N15147 1911 38 WP MM NOT_NAMED 1911-06-13 12:00:00 NR 15.0120 138.675 main 1461 1418 __________P___ -1 15.0120 138.675 7 8 272
1911162N15147 1911 38 WP MM NOT_NAMED 1911-06-13 15:00:00 NR 15.0262 138.252 main 1418 1368 __________P___ -1 15.0262 138.252 7 8 273
1911162N15147 1911 38 WP MM NOT_NAMED 1911-06-13 18:00:00 NR 15.0524 137.803 main 1368 1316 __________P___ -1 15.0524 137.803 7 9 275
1911162N15147 1911 38 WP MM NOT_NAMED 1911-06-13 21:00:00 NR 15.1000 137.300 main 1316 1263 __________O___ -1 15.1000 137.300 7 10 275
1911162N15147 1911 38 WP MM NOT_NAMED 1911-06-14 00:00:00 NR 15.1328 136.755 main 1263 1204 __________P___ -1 15.1328 136.755 7 11 275
1911162N15147 1911 38 WP MM NOT_NAMED 1911-06-14 03:00:00 NR 15.1934 136.147 main 1193 1134 __________P___ -1 15.1934 136.147 7 13 278
1911162N15147 1911 38 WP MM NOT_NAMED 1911-06-14 06:00:00 NR 15.3073 135.467 main 1134 1060 __________P___ -1 15.3073 135.467 7 14 282
1911162N15147 1911 38 WP MM NOT_NAMED 1911-06-14 09:00:00 NR 15.5000 134.700 main 1060 982 __________O___ -1 15.5000 134.700 7 17 286
1911162N15147 1911 38 WP MM NOT_NAMED 1911-06-14 12:00:00 NR 15.7904 133.753 main 982 900 __________P___ -1 15.7904 133.753 7 20 289
1911162N15147 1911 38 WP MM NOT_NAMED 1911-06-14 15:00:00 NR 16.1564 132.735 main 896 832 __________P___ -1 16.1564 132.735 7 21 292
1911162N15147 1911 38 WP MM NOT_NAMED 1911-06-14 18:00:00 NR 16.5688 131.750 main 829 778 __________P___ -1 16.5688 131.750 7 20 296
1911162N15147 1911 38 WP MM NOT_NAMED 1911-06-14 21:00:00 NR 17.0000 130.900 main 778 743 __________O___ -1 17.0000 130.900 7 16 301
1911162N15147 1911 38 WP MM NOT_NAMED 1911-06-15 00:00:00 NR 17.3837 130.314 main 743 726 __________P___ -1 17.3837 130.314 7 13 309
1911162N15147 1911 38 WP MM NOT_NAMED 1911-06-15 03:00:00 NR 17.7869 129.875 main 732 722 __________P___ -1 17.7869 129.875 7 11 318
1911162N15147 1911 38 WP MM NOT_NAMED 1911-06-15 06:00:00 NR 18.2218 129.523 main 727 726 __________P___ -1 18.2218 129.523 7 11 325
1911162N15147 1911 38 WP MM NOT_NAMED 1911-06-15 09:00:00 NR 18.7000 129.200 main 728 690 __________O___ -1 18.7000 129.200 7 13 326
1911162N15147 1911 38 WP MM NOT_NAMED 1911-06-15 12:00:00 NR 19.2847 128.775 main 691 659 __________P___ -1 19.2847 128.775 7 14 327
1911162N15147 1911 38 WP MM NOT_NAMED 1911-06-15 15:00:00 NR 19.9026 128.369 main 662 638 __________P___ -1 19.9026 128.369 7 14 329
1911162N15147 1911 38 WP MM NOT_NAMED 1911-06-15 18:00:00 NR 20.4942 128.003 main 642 630 __________P___ -1 20.4942 128.003 7 13 330
1911162N15147 1911 38 WP MM NOT_NAMED 1911-06-15 21:00:00 NR 21.0000 127.700 main 635 627 __________O___ -1 21.0000 127.700 7 10 330
1911162N15147 1911 38 WP MM NOT_NAMED 1911-06-16 00:00:00 NR 21.3347 127.480 main 633 627 __________P___ -1 21.3347 127.480 7 7 329
1911162N15147 1911 38 WP MM NOT_NAMED 1911-06-16 03:00:00 NR 21.5818 127.323 main 629 613 __________P___ -1 21.5818 127.323 7 5 331
1911162N15147 1911 38 WP MM NOT_NAMED 1911-06-16 06:00:00 NR 21.7880 127.205 main 613 597 __________P___ -1 21.7880 127.205 7 5 334
1911162N15147 1911 38 WP MM NOT_NAMED 1911-06-16 09:00:00 NR 22.0000 127.100 main 597 580 __________O___ -1 22.0000 127.100 7 5 333
1911162N15147 1911 38 WP MM NOT_NAMED 1911-06-16 12:00:00 NR 22.2532 126.948 main 566 547 __________P___ -1 22.2532 126.948 7 6 332
1911162N15147 1911 38 WP MM NOT_NAMED 1911-06-16 15:00:00 NR 22.5251 126.805 main 547 524 __________P___ -1 22.5251 126.805 7 6 337
1911162N15147 1911 38 WP MM NOT_NAMED 1911-06-16 18:00:00 NR 22.8344 126.685 main 524 499 __________P___ -1 22.8344 126.685 7 7 344
1911162N15147 1911 38 WP MM NOT_NAMED 1911-06-16 21:00:00 NR 23.2000 126.600 main 499 477 __________O___ -1 23.2000 126.600 7 8 351
1911162N15147 1911 38 WP MM NOT_NAMED 1911-06-17 00:00:00 NR 23.6343 126.548 main 477 465 __________P___ -1 23.6343 126.548 7 9 356
1911162N15147 1911 38 WP MM NOT_NAMED 1911-06-17 03:00:00 NR 24.1250 126.533 main 465 456 __________P___ -1 24.1250 126.533 7 10 0
1911162N15147 1911 38 WP MM NOT_NAMED 1911-06-17 06:00:00 NR 24.6531 126.551 main 465 463 __________P___ -1 24.6531 126.551 7 11 3
1911162N15147 1911 38 WP MM NOT_NAMED 1911-06-17 09:00:00 NR 25.2000 126.600 main 463 463 __________O___ -1 25.2000 126.600 7 10 1
1911162N15147 1911 38 WP MM NOT_NAMED 1911-06-17 12:00:00 NR 25.6733 126.563 main 468 468 __________P___ -1 25.6733 126.563 7 10 359
1911162N15147 1911 38 WP MM NOT_NAMED 1911-06-17 15:00:00 NR 26.1699 126.570 main 479 479 __________P___ -1 26.1699 126.570 7 11 6
1911162N15147 1911 38 WP MM NOT_NAMED 1911-06-17 18:00:00 NR 26.7316 126.691 main 506 506 __________P___ -1 26.7316 126.691 7 13 17
1911162N15147 1911 38 WP MM NOT_NAMED 1911-06-17 21:00:00 NR 27.4000 127.000 main 525 433 __________O___ -1 27.4000 127.000 4 16 27
1911162N15147 1911 38 WP MM NOT_NAMED 1911-06-18 00:00:00 NR 28.1832 127.511 main 424 311 __________P___ -1 28.1832 127.511 4 20 33
1911162N15147 1911 38 WP MM NOT_NAMED 1911-06-18 03:00:00 NR 29.0744 128.228 main 302 170 __________P___ -1 29.0744 128.228 4 24 37
1911162N15147 1911 38 WP MM NOT_NAMED 1911-06-18 06:00:00 NR 30.0533 129.131 main 161 24 __________P___ -1 30.0533 129.131 4 27 40
1911162N15147 1911 38 WP MM NOT_NAMED 1911-06-18 09:00:00 NR 31.1000 130.200 main 11 0 __________O___ -1 31.1000 130.200 4 29 42
1911162N15147 1911 38 WP MM NOT_NAMED 1911-06-18 12:00:00 NR 32.1672 131.361 main 0 0 __________P___ -1 32.1672 131.361 4 30 44
1911162N15147 1911 38 WP MM NOT_NAMED 1911-06-18 15:00:00 NR 33.2886 132.689 main 0 0 __________P___ -1 33.2886 132.689 4 33 46
1911162N15147 1911 38 WP MM NOT_NAMED 1911-06-18 18:00:00 NR 34.4402 134.148 main 11 0 __________P___ -1 34.4402 134.148 4 34 47
1911162N15147 1911 38 WP MM NOT_NAMED 1911-06-18 21:00:00 NR 35.6000 135.700 main 11 0 __________O___ -1 35.6000 135.700 4 36 48
1911162N15147 1911 38 WP MM NOT_NAMED 1911-06-19 00:00:00 NR 36.8229 137.421 main 0 0 __________P___ -1 36.8229 137.421 4 37 49
1911162N15147 1911 38 WP MM NOT_NAMED 1911-06-19 03:00:00 NR 38.0291 139.219 main 0 0 __________P___ -1 38.0291 139.219 4 36 50
1911162N15147 1911 38 WP MM NOT_NAMED 1911-06-19 06:00:00 NR 39.1439 140.963 main 0 0 __________P___ -1 39.1439 140.963 4 33 51
1911162N15147 1911 38 WP MM NOT_NAMED 1911-06-19 09:00:00 NR 40.1000 142.500 main 52 52 __________O___ -1 40.1000 142.500 7 27 51
1911162N15147 1911 38 WP MM NOT_NAMED 1911-06-19 12:00:00 NR 40.8576 143.710 main 118 113 __________P___ -1 40.8576 143.710 7 21 50
1911162N15147 1911 38 WP MM NOT_NAMED 1911-06-19 15:00:00 NR 41.4572 144.634 main 121 115 __________P___ -1 41.4572 144.634 7 17 48
1911162N15147 1911 38 WP MM NOT_NAMED 1911-06-19 18:00:00 NR 41.9543 145.364 main 111 94 __________P___ -1 41.9543 145.364 7 14 47
1911162N15147 1911 38 WP MM NOT_NAMED 1911-06-19 21:00:00 NR 42.4000 146.000 main 97 __________O___ -1 42.4000 146.000 7 13 47

デジタル台風データ・検索

IBTrACS Databaseについて

本データベースは、米国NOAAが公開する1842年以降の世界の熱帯低気圧のベストトラックデータアーカイブInternational Best Track Archive for Climate Stewardship (IBTrACS)を、ウェブで閲覧しやすい形式に変換したものです。

最終更新日:2021-12-03